Time;durP1;ratioP1;P1;durP2;ratioP2;P2;SDS_P1;SDS_P2;PMS_P1;PMS_P2;Temp;Humidity;BMP_temperature;BMP_pressure;BME280_temperature;BME280_humidity;BME280_pressure;Samples;Min_cycle;Max_cycle;Signal;HPM_P1;HPM_P2
2021/05/21 00:02:07;;;;;;;;;;;;;;;9.88;70.50;100769.91;4987303;28;1071;-79
2021/05/21 00:04:32;;;;;;;;;;;;;;;9.79;71.03;100772.75;4992642;28;2072;-80
2021/05/21 00:06:58;;;;;;;;;;;;;;;9.76;71.53;100767.09;5003005;28;1284;-80
2021/05/21 00:09:23;;;;;;;;;;;;;;;9.75;70.73;100759.97;5006702;28;1178;-79
2021/05/21 00:11:48;;;;;;;;;;;;;;;9.79;71.26;100752.63;5007527;28;999;-80
2021/05/21 00:14:14;;;;;;;;;;;;;;;9.83;70.42;100752.75;5006085;28;1867;-80
2021/05/21 00:16:40;;;;;;;;;;;;;;;9.86;70.48;100743.78;5007735;28;1907;-80
2021/05/21 00:19:05;;;;;;;;;;;;;;;9.83;70.79;100728.75;4986383;28;2082;-80
2021/05/21 00:21:30;;;;;;;;;;;;;;;9.79;70.14;100725.03;5006410;28;1040;-80
2021/05/21 00:23:56;;;;;;;;;;;;;;;9.79;70.50;100717.59;4988432;28;980;-80
2021/05/21 00:26:21;;;;;;;;;;;;;;;9.85;70.25;100707.16;5006410;28;818;-80
2021/05/21 00:28:46;;;;;;;;;;;;;;;9.87;70.27;100701.28;5004657;28;2076;-79
2021/05/21 00:31:12;;;;;;;;;;;;;;;9.85;70.38;100698.06;4988060;28;1308;-79
2021/05/21 00:33:37;;;;;;;;;;;;;;;9.85;69.68;100684.28;5006325;28;1005;-80
2021/05/21 00:36:03;;;;;;;;;;;;;;;9.84;69.95;100674.38;5005106;28;2126;-79
2021/05/21 00:38:28;;;;;;;;;;;;;;;9.82;69.72;100688.53;5004705;28;1264;-79
2021/05/21 00:40:53;;;;;;;;;;;;;;;9.81;70.48;100686.94;5004944;28;841;-79
2021/05/21 00:43:19;;;;;;;;;;;;;;;9.76;70.62;100685.19;5003597;28;1008;-80
2021/05/21 00:45:44;;;;;;;;;;;;;;;9.74;70.68;100668.19;4983793;28;1995;-79
2021/05/21 00:48:10;;;;;;;;;;;;;;;9.75;69.79;100666.22;4985243;28;1202;-80
2021/05/21 00:50:35;;;;;;;;;;;;;;;9.72;70.08;100655.88;4997444;28;2085;-80
2021/05/21 00:53:04;;;;;;;;;;;;;;;9.73;70.24;100650.00;4988279;28;1305;-79
2021/05/21 00:55:29;;;;;;;;;;;;;;;9.77;70.04;100639.91;5005139;28;2048;-80
2021/05/21 00:57:55;;;;;;;;;;;;;;;9.80;69.83;100638.44;5005106;28;1276;-79
2021/05/21 01:00:20;;;;;;;;;;;;;;;9.89;69.19;100630.84;5006959;28;1143;-80
2021/05/21 01:02:46;;;;;;;;;;;;;;;9.88;69.38;100620.97;4989354;28;1673;-80
2021/05/21 01:05:12;;;;;;;;;;;;;;;9.93;69.34;100608.88;5005995;28;1937;-79
2021/05/21 01:07:37;;;;;;;;;;;;;;;9.97;68.95;100612.59;5004014;28;1969;-80
2021/05/21 01:10:04;;;;;;;;;;;;;;;10.00;68.95;100605.56;5005799;28;859;-80
2021/05/21 01:12:29;;;;;;;;;;;;;;;10.10;67.73;100597.63;5007489;28;932;-79
2021/05/21 01:14:56;;;;;;;;;;;;;;;10.19;67.15;100586.47;4992136;28;1780;-80
2021/05/21 01:17:23;;;;;;;;;;;;;;;10.21;67.30;100584.16;5009652;28;1875;-79
2021/05/21 01:19:49;;;;;;;;;;;;;;;10.19;67.21;100578.19;5009312;28;2040;-80
2021/05/21 01:22:15;;;;;;;;;;;;;;;10.26;66.67;100570.13;5009314;28;801;-81
2021/05/21 01:24:42;;;;;;;;;;;;;;;10.34;66.17;100566.44;5008114;28;2175;-79
2021/05/21 01:27:09;;;;;;;;;;;;;;;10.39;66.36;100572.91;4988716;28;1256;-79
2021/05/21 01:29:35;;;;;;;;;;;;;;;10.45;65.59;100565.97;4988986;28;1043;-81
2021/05/21 01:32:01;;;;;;;;;;;;;;;10.50;65.49;100555.50;4988568;28;1063;-79
2021/05/21 01:34:27;;;;;;;;;;;;;;;10.65;64.10;100550.38;4993638;28;2231;-80
2021/05/21 01:36:52;;;;;;;;;;;;;;;10.78;63.78;100537.31;5008265;28;1891;-79
2021/05/21 01:39:18;;;;;;;;;;;;;;;10.80;63.45;100535.81;5007227;28;965;-79
2021/05/21 01:41:43;;;;;;;;;;;;;;;10.83;63.04;100534.28;4990534;28;916;-80
2021/05/21 01:44:11;;;;;;;;;;;;;;;10.89;62.54;100528.16;5007319;28;1992;-79
2021/05/21 01:46:37;;;;;;;;;;;;;;;10.92;62.49;100526.66;5007522;28;1035;-78
2021/05/21 01:49:04;;;;;;;;;;;;;;;10.90;63.10;100526.19;5005684;28;2004;-79
2021/05/21 01:51:30;;;;;;;;;;;;;;;10.88;62.74;100517.47;5005359;28;1839;-78
2021/05/21 01:54:15;;;;;;;;;;;;;;;10.84;63.12;100509.09;5006673;28;870;-79
2021/05/21 01:56:41;;;;;;;;;;;;;;;10.86;62.91;100509.53;5000212;28;1959;-79
2021/05/21 01:59:07;;;;;;;;;;;;;;;10.91;62.47;100506.50;5006310;28;1961;-78
2021/05/21 02:01:32;;;;;;;;;;;;;;;10.91;62.68;100503.75;5005732;28;1051;-79
2021/05/21 02:03:58;;;;;;;;;;;;;;;10.88;63.11;100500.88;5005417;28;918;-79
2021/05/21 02:06:24;;;;;;;;;;;;;;;10.88;63.08;100501.72;5006941;28;2166;-79
2021/05/21 02:08:50;;;;;;;;;;;;;;;10.95;62.46;100495.56;5006977;28;1272;-79
2021/05/21 02:11:15;;;;;;;;;;;;;;;10.94;62.66;100487.66;5005760;28;1937;-81
2021/05/21 02:13:40;;;;;;;;;;;;;;;11.01;62.05;100485.84;5008494;28;996;-80
2021/05/21 02:16:06;;;;;;;;;;;;;;;10.99;62.43;100482.66;5006822;28;1886;-79
2021/05/21 02:18:31;;;;;;;;;;;;;;;10.97;62.60;100475.88;5005777;28;1261;-79
2021/05/21 02:20:56;;;;;;;;;;;;;;;10.90;62.86;100473.72;5006675;28;1878;-79
2021/05/21 02:23:22;;;;;;;;;;;;;;;10.85;63.37;100465.72;5006342;28;980;-79
2021/05/21 02:25:47;;;;;;;;;;;;;;;10.78;63.64;100468.25;4988114;28;1218;-78
2021/05/21 02:28:12;;;;;;;;;;;;;;;10.77;63.63;100461.94;5007594;28;1898;-79
2021/05/21 02:30:38;;;;;;;;;;;;;;;10.77;64.19;100455.63;5008717;28;868;-79
2021/05/21 02:33:03;;;;;;;;;;;;;;;10.77;64.38;100452.88;4992976;28;1371;-78
2021/05/21 02:35:29;;;;;;;;;;;;;;;10.78;64.00;100449.75;5007688;28;2029;-78
2021/05/21 02:37:54;;;;;;;;;;;;;;;10.80;63.96;100438.38;5008059;28;1284;-78
2021/05/21 02:40:20;;;;;;;;;;;;;;;10.83;63.88;100448.69;4991521;28;1249;-79
2021/05/21 02:42:46;;;;;;;;;;;;;;;10.83;64.18;100421.06;4989451;28;1132;-78
2021/05/21 02:45:12;;;;;;;;;;;;;;;10.77;64.06;100423.28;5008927;28;2040;-78
2021/05/21 02:47:37;;;;;;;;;;;;;;;10.71;64.64;100422.75;4990712;28;1214;-79
2021/05/21 02:50:05;;;;;;;;;;;;;;;10.73;64.47;100409.38;5008010;28;1961;-79
2021/05/21 02:52:30;;;;;;;;;;;;;;;10.77;64.32;100419.72;5007757;28;1929;-78
2021/05/21 02:54:56;;;;;;;;;;;;;;;10.69;64.47;100407.69;5006176;28;925;-79
2021/05/21 02:57:23;;;;;;;;;;;;;;;10.63;64.87;100404.38;5006023;28;1894;-79
2021/05/21 02:59:49;;;;;;;;;;;;;;;10.57;65.32;100399.47;5006410;28;1933;-83
2021/05/21 03:02:14;;;;;;;;;;;;;;;10.65;64.79;100398.53;5002415;28;1703;-80
2021/05/21 03:04:40;;;;;;;;;;;;;;;10.63;65.06;100390.59;5006349;28;1878;-79
2021/05/21 03:07:05;;;;;;;;;;;;;;;10.62;65.30;100396.47;5005875;28;1186;-80
2021/05/21 03:09:31;;;;;;;;;;;;;;;10.57;65.55;100392.00;5005086;28;1938;-79
2021/05/21 03:11:56;;;;;;;;;;;;;;;10.56;65.88;100387.66;5005022;28;996;-80
2021/05/21 03:14:21;;;;;;;;;;;;;;;10.55;65.78;100386.03;5005997;28;838;-79
2021/05/21 03:16:46;;;;;;;;;;;;;;;10.56;65.63;100386.84;5003686;28;1945;-79
2021/05/21 03:19:12;;;;;;;;;;;;;;;10.60;66.18;100377.47;5003386;28;1692;-79
2021/05/21 03:21:37;;;;;;;;;;;;;;;10.60;65.64;100385.75;5003935;28;818;-80
2021/05/21 03:24:03;;;;;;;;;;;;;;;10.63;65.73;100382.31;4987426;28;903;-79
2021/05/21 03:26:28;;;;;;;;;;;;;;;10.67;65.67;100371.34;5005166;28;1469;-79
2021/05/21 03:28:54;;;;;;;;;;;;;;;10.71;65.45;100375.81;5006260;28;1257;-80
2021/05/21 03:31:19;;;;;;;;;;;;;;;10.67;65.62;100376.88;5005224;28;1966;-79
2021/05/21 03:33:44;;;;;;;;;;;;;;;10.62;66.19;100361.34;5006396;28;968;-79
2021/05/21 03:36:10;;;;;;;;;;;;;;;10.58;66.60;100360.47;5003767;28;1905;-79
2021/05/21 03:38:36;;;;;;;;;;;;;;;10.59;66.10;100370.38;5003003;28;1269;-79
2021/05/21 03:41:01;;;;;;;;;;;;;;;10.68;65.80;100361.91;5004345;28;972;-79
2021/05/21 03:43:26;;;;;;;;;;;;;;;10.70;65.82;100352.09;5004714;28;773;-79
2021/05/21 03:45:52;;;;;;;;;;;;;;;10.70;66.29;100349.34;5005347;28;768;-79
2021/05/21 03:48:17;;;;;;;;;;;;;;;10.78;65.92;100353.09;5004233;28;2047;-79
2021/05/21 03:50:43;;;;;;;;;;;;;;;10.86;65.55;100349.34;5004781;28;1843;-80
2021/05/21 03:53:08;;;;;;;;;;;;;;;10.90;65.75;100355.75;5005256;28;917;-79
2021/05/21 03:55:34;;;;;;;;;;;;;;;10.95;65.58;100351.13;5005480;28;1890;-78
2021/05/21 03:58:00;;;;;;;;;;;;;;;10.94;65.32;100341.25;5004997;28;1878;-78
2021/05/21 04:00:26;;;;;;;;;;;;;;;10.94;65.80;100347.56;5004758;28;887;-79
2021/05/21 04:02:53;;;;;;;;;;;;;;;10.94;65.69;100355.84;5004070;28;797;-80
2021/05/21 04:05:19;;;;;;;;;;;;;;;11.01;65.54;100352.47;5002980;28;1948;-79
2021/05/21 04:07:46;;;;;;;;;;;;;;;11.10;65.24;100347.53;4984686;28;1249;-78
2021/05/21 04:10:12;;;;;;;;;;;;;;;11.14;65.12;100347.63;5004659;28;967;-80
2021/05/21 04:12:37;;;;;;;;;;;;;;;11.19;65.36;100337.06;4986918;28;1642;-79
2021/05/21 04:15:03;;;;;;;;;;;;;;;11.25;64.78;100338.41;5003249;28;1850;-79
2021/05/21 04:17:29;;;;;;;;;;;;;;;11.27;65.32;100333.31;5004557;28;1898;-79
2021/05/21 04:19:54;;;;;;;;;;;;;;;11.28;64.71;100328.59;5003736;28;2071;-79
2021/05/21 04:22:19;;;;;;;;;;;;;;;11.31;64.68;100327.88;5005123;28;1079;-79
2021/05/21 04:24:45;;;;;;;;;;;;;;;11.36;64.72;100315.72;5003704;28;2115;-79
2021/05/21 04:27:10;;;;;;;;;;;;;;;11.35;64.88;100320.47;5003983;28;1221;-79
2021/05/21 04:29:36;;;;;;;;;;;;;;;11.36;64.65;100310.22;5004543;28;866;-78
2021/05/21 04:32:03;;;;;;;;;;;;;;;11.43;64.62;100316.69;5004000;28;853;-79
2021/05/21 04:34:28;;;;;;;;;;;;;;;11.48;64.51;100316.38;5003392;28;1986;-79
2021/05/21 04:36:54;;;;;;;;;;;;;;;11.55;64.39;100326.00;5003979;28;1967;-79
2021/05/21 04:39:19;;;;;;;;;;;;;;;11.61;64.09;100322.59;5003659;28;1175;-79
2021/05/21 04:41:45;;;;;;;;;;;;;;;11.69;63.97;100322.75;5003300;28;863;-79
2021/05/21 04:44:11;;;;;;;;;;;;;;;11.75;63.67;100319.31;5003831;28;1902;-79
2021/05/21 04:46:37;;;;;;;;;;;;;;;11.72;63.75;100328.34;5003842;28;850;-79
2021/05/21 04:49:02;;;;;;;;;;;;;;;11.71;63.98;100312.09;5007311;28;2036;-79
2021/05/21 04:51:28;;;;;;;;;;;;;;;11.69;63.86;100312.47;4988602;28;1982;-79
2021/05/21 04:53:53;;;;;;;;;;;;;;;11.70;64.11;100302.19;5006718;28;964;-79
2021/05/21 04:56:19;;;;;;;;;;;;;;;11.70;64.10;100319.63;5002498;28;3260;-79
2021/05/21 04:58:45;;;;;;;;;;;;;;;11.75;63.98;100315.75;4990375;28;3770;-81
2021/05/21 05:01:11;;;;;;;;;;;;;;;11.82;63.56;100316.69;4984286;28;845;-79
2021/05/21 05:03:36;;;;;;;;;;;;;;;11.84;63.78;100330.16;4986193;28;1004;-80
2021/05/21 05:06:01;;;;;;;;;;;;;;;11.85;63.98;100323.44;4985151;28;1919;-79
2021/05/21 05:08:28;;;;;;;;;;;;;;;11.84;63.98;100322.66;5007471;28;1980;-79
2021/05/21 05:10:53;;;;;;;;;;;;;;;11.83;63.99;100329.38;5007258;28;848;-79
2021/05/21 05:13:21;;;;;;;;;;;;;;;11.79;64.12;100334.00;5007488;28;1185;-79
2021/05/21 05:15:47;;;;;;;;;;;;;;;11.75;64.47;100337.88;5009640;28;1871;-80
2021/05/21 05:18:13;;;;;;;;;;;;;;;11.71;65.29;100348.84;5009507;28;1933;-80
2021/05/21 05:20:39;;;;;;;;;;;;;;;11.52;66.40;100351.63;5010892;28;1874;-80
2021/05/21 05:23:07;;;;;;;;;;;;;;;11.45;66.26;100352.25;4993350;28;885;-80
2021/05/21 05:25:33;;;;;;;;;;;;;;;11.43;65.64;100346.28;5009959;28;1380;-81
2021/05/21 05:27:58;;;;;;;;;;;;;;;11.28;65.93;100334.09;5003036;28;1379;-80
2021/05/21 05:30:24;;;;;;;;;;;;;;;11.22;66.21;100332.81;5005653;28;1914;-81
2021/05/21 05:32:50;;;;;;;;;;;;;;;11.14;66.66;100328.28;5009025;28;2003;-80
2021/05/21 05:35:15;;;;;;;;;;;;;;;10.97;67.51;100341.31;5008573;28;1891;-80
2021/05/21 05:37:41;;;;;;;;;;;;;;;10.76;67.90;100340.78;5006088;28;1202;-79
2021/05/21 05:40:07;;;;;;;;;;;;;;;10.62;67.96;100347.56;5004984;28;2052;-79
2021/05/21 05:42:33;;;;;;;;;;;;;;;10.41;69.58;100350.56;5007130;28;1930;-80
2021/05/21 05:44:58;;;;;;;;;;;;;;;10.04;72.51;100363.75;5009232;28;1888;-80
2021/05/21 05:47:24;;;;;;;;;;;;;;;9.74;75.02;100361.31;5008156;28;1351;-80
2021/05/21 05:49:52;;;;;;;;;;;;;;;9.46;76.28;100373.09;5009955;28;2145;-80
2021/05/21 05:52:17;;;;;;;;;;;;;;;9.27;77.86;100361.88;4992280;28;1497;-83
2021/05/21 05:54:43;;;;;;;;;;;;;;;9.15;78.80;100352.50;5005713;28;1708;-79
2021/05/21 05:57:09;;;;;;;;;;;;;;;9.06;78.69;100349.06;5007295;28;1898;-80
2021/05/21 05:59:35;;;;;;;;;;;;;;;9.00;79.04;100353.19;5006927;28;959;-79
2021/05/21 06:02:00;;;;;;;;;;;;;;;9.00;79.38;100344.94;5011627;28;2095;-80
2021/05/21 06:04:26;;;;;;;;;;;;;;;9.04;80.24;100337.59;4992537;28;1919;-81
2021/05/21 06:06:51;;;;;;;;;;;;;;;9.11;79.35;100328.75;5010592;28;1217;-80
2021/05/21 06:09:17;;;;;;;;;;;;;;;9.16;80.25;100321.03;5010061;28;2008;-80
2021/05/21 06:11:42;;;;;;;;;;;;;;;9.21;83.46;100318.06;5010352;28;1902;-81
2021/05/21 06:14:08;;;;;;;;;;;;;;;9.22;84.56;100319.66;5011466;28;864;-80
2021/05/21 06:16:33;;;;;;;;;;;;;;;9.18;83.97;100317.94;5011288;28;1871;-81
2021/05/21 06:18:59;;;;;;;;;;;;;;;9.18;86.05;100312.44;5009661;28;1905;-81
2021/05/21 06:21:24;;;;;;;;;;;;;;;9.25;85.97;100309.88;4975163;28;2291;-81
2021/05/21 06:23:50;;;;;;;;;;;;;;;9.21;87.18;100314.50;4990834;28;992;-80
2021/05/21 06:26:28;;;;;;;;;;;;;;;9.22;87.48;100303.13;5005578;28;1937;-81
2021/05/21 06:28:54;;;;;;;;;;;;;;;9.31;87.58;100294.75;5008012;28;1331;-81
2021/05/21 06:31:20;;;;;;;;;;;;;;;9.52;86.84;100289.03;5009735;28;1969;-80
2021/05/21 06:33:45;;;;;;;;;;;;;;;9.64;86.51;100288.19;5008952;28;1088;-82
2021/05/21 06:36:11;;;;;;;;;;;;;;;9.57;86.62;100286.03;5009969;28;1938;-81
2021/05/21 06:38:40;;;;;;;;;;;;;;;9.57;87.16;100271.47;5009311;28;1705;-81
2021/05/21 06:41:07;;;;;;;;;;;;;;;9.79;86.73;100270.91;5000033;28;3020;-81
2021/05/21 06:43:32;;;;;;;;;;;;;;;9.88;85.81;100264.41;4990473;28;3735;-80
2021/05/21 06:45:59;;;;;;;;;;;;;;;9.99;85.54;100271.03;4989173;28;1024;-79
2021/05/21 06:48:32;;;;;;;;;;;;;;;10.04;83.72;100267.22;4988208;28;3171;-79
2021/05/21 06:51:00;;;;;;;;;;;;;;;10.07;83.78;100264.53;5001660;28;1835;-80
2021/05/21 06:53:26;;;;;;;;;;;;;;;10.13;82.86;100257.59;5008620;28;833;-80
2021/05/21 06:55:55;;;;;;;;;;;;;;;10.30;82.98;100250.13;5009100;28;1898;-79
2021/05/21 06:58:21;;;;;;;;;;;;;;;10.35;82.48;100253.44;5005185;28;1995;-80
2021/05/21 07:00:47;;;;;;;;;;;;;;;10.49;81.41;100257.72;5003982;28;3339;-80
2021/05/21 07:03:13;;;;;;;;;;;;;;;10.57;81.51;100259.47;4989175;28;3884;-80
2021/05/21 07:05:39;;;;;;;;;;;;;;;10.76;78.80;100257.94;4989579;28;1237;-79
2021/05/21 07:08:05;;;;;;;;;;;;;;;11.03;79.60;100251.47;4993292;28;3477;-80
2021/05/21 07:10:30;;;;;;;;;;;;;;;11.18;78.86;100257.31;5007360;28;1835;-80
2021/05/21 07:12:56;;;;;;;;;;;;;;;11.05;78.50;100242.81;5008199;28;2103;-81
2021/05/21 07:15:21;;;;;;;;;;;;;;;11.40;77.37;100234.50;5007873;28;1930;-80
2021/05/21 07:17:46;;;;;;;;;;;;;;;13.09;69.57;100231.00;5007693;28;1288;-80
2021/05/21 07:20:13;;;;;;;;;;;;;;;14.71;64.28;100221.53;5005422;28;2981;-80
2021/05/21 07:22:39;;;;;;;;;;;;;;;15.77;61.02;100228.00;5008877;28;865;-81
2021/05/21 07:25:08;;;;;;;;;;;;;;;14.27;63.14;100220.38;4990658;28;2036;-82
2021/05/21 07:27:33;;;;;;;;;;;;;;;13.89;66.11;100220.47;4987836;28;1906;-81
2021/05/21 07:29:59;;;;;;;;;;;;;;;13.03;66.71;100224.16;4987420;28;1152;-79
2021/05/21 07:32:26;;;;;;;;;;;;;;;12.44;69.47;100218.16;5006281;28;1956;-81
2021/05/21 07:34:51;;;;;;;;;;;;;;;12.38;70.28;100221.25;5005471;28;1760;-79
2021/05/21 07:37:17;;;;;;;;;;;;;;;12.32;69.69;100238.53;4985362;28;1898;-80
2021/05/21 07:39:42;;;;;;;;;;;;;;;12.26;70.70;100220.66;5000444;28;1855;-81
2021/05/21 07:42:08;;;;;;;;;;;;;;;12.43;70.11;100228.47;5001265;28;1019;-79
2021/05/21 07:44:33;;;;;;;;;;;;;;;12.08;69.42;100221.16;5005409;28;851;-80
2021/05/21 07:46:59;;;;;;;;;;;;;;;12.11;68.93;100220.44;4987891;28;1308;-80
2021/05/21 07:49:25;;;;;;;;;;;;;;;12.30;69.96;100213.19;5004636;28;1007;-79
2021/05/21 07:51:54;;;;;;;;;;;;;;;12.64;68.69;100205.03;4985929;28;2088;-79
2021/05/21 07:54:20;;;;;;;;;;;;;;;12.86;66.49;100195.84;4989458;28;903;-80
2021/05/21 07:56:46;;;;;;;;;;;;;;;13.12;65.97;100199.75;4991359;28;2414;-81
2021/05/21 07:59:12;;;;;;;;;;;;;;;13.86;63.92;100185.16;4999223;28;2064;-80
2021/05/21 08:01:41;;;;;;;;;;;;;;;14.53;62.32;100185.28;4987452;28;1905;-81
2021/05/21 08:04:07;;;;;;;;;;;;;;;15.33;59.14;100181.72;4968577;28;1466;-81
2021/05/21 08:06:34;;;;;;;;;;;;;;;16.24;55.30;100175.13;4986936;28;1313;-80
2021/05/21 08:09:02;;;;;;;;;;;;;;;18.01;51.01;100162.09;5006610;28;1885;-80
2021/05/21 08:11:28;;;;;;;;;;;;;;;16.89;52.27;100167.50;5001884;28;2020;-81
2021/05/21 08:13:53;;;;;;;;;;;;;;;16.49;54.78;100175.91;4989955;28;1171;-79
2021/05/21 08:16:19;;;;;;;;;;;;;;;17.48;50.34;100167.63;5006610;28;1920;-81
2021/05/21 08:18:44;;;;;;;;;;;;;;;17.76;51.24;100168.63;4983164;28;2032;-79
2021/05/21 08:21:09;;;;;;;;;;;;;;;17.87;49.29;100153.84;5003561;28;1550;-82
2021/05/21 08:23:37;;;;;;;;;;;;;;;19.43;48.78;100151.78;4991301;28;933;-79
2021/05/21 08:26:02;;;;;;;;;;;;;;;19.92;42.71;100160.72;4993314;28;1755;-80
2021/05/21 08:28:27;;;;;;;;;;;;;;;20.20;43.80;100153.84;5009505;28;1260;-79
2021/05/21 08:30:53;;;;;;;;;;;;;;;19.58;41.80;100172.00;5010498;28;813;-80
2021/05/21 08:33:22;;;;;;;;;;;;;;;19.16;42.80;100158.94;5009732;28;774;-80
2021/05/21 08:35:47;;;;;;;;;;;;;;;19.31;43.04;100139.97;4990668;28;2006;-79
2021/05/21 08:38:14;;;;;;;;;;;;;;;19.28;42.68;100137.22;5007746;28;2027;-80
2021/05/21 08:40:40;;;;;;;;;;;;;;;20.60;40.84;100136.31;5005662;28;1936;-79
2021/05/21 08:43:10;;;;;;;;;;;;;;;21.25;39.77;100143.44;5004213;28;2063;-78
2021/05/21 08:45:36;;;;;;;;;;;;;;;20.26;40.59;100138.13;5003130;28;2013;-78
2021/05/21 08:48:02;;;;;;;;;;;;;;;19.46;41.62;100143.34;4999133;28;2261;-79
2021/05/21 08:50:29;;;;;;;;;;;;;;;19.91;40.21;100139.50;5004309;28;752;-79
2021/05/21 08:52:58;;;;;;;;;;;;;;;20.61;37.48;100146.31;5004131;28;2247;-79
2021/05/21 08:55:23;;;;;;;;;;;;;;;21.67;36.95;100124.84;4992246;28;2289;-78
2021/05/21 08:57:49;;;;;;;;;;;;;;;23.56;32.45;100127.78;4983214;28;2210;-80
2021/05/21 09:00:15;;;;;;;;;;;;;;;21.00;35.26;100111.09;5006096;28;2105;-80
2021/05/21 09:02:41;;;;;;;;;;;;;;;21.85;35.28;100118.00;4994742;28;1240;-81
2021/05/21 09:05:09;;;;;;;;;;;;;;;23.88;30.14;100120.31;5008932;28;2105;-82
2021/05/21 09:07:37;;;;;;;;;;;;;;;20.33;34.18;100142.00;5008999;28;2157;-79
2021/05/21 09:10:13;;;;;;;;;;;;;;;18.86;37.14;100128.97;5000827;28;2280;-79
2021/05/21 09:12:40;;;;;;;;;;;;;;;17.81;38.49;100145.88;4986391;28;1996;-78
2021/05/21 09:15:13;;;;;;;;;;;;;;;16.52;41.21;100143.66;5004268;28;844;-79
2021/05/21 09:17:56;;;;;;;;;;;;;;;16.70;40.96;100132.47;5003640;28;2020;-80
2021/05/21 09:20:33;;;;;;;;;;;;;;;17.75;37.87;100110.41;4988295;28;1307;-79
2021/05/21 09:23:15;;;;;;;;;;;;;;;19.48;36.82;100137.34;5003004;28;1768;-79
2021/05/21 09:25:48;;;;;;;;;;;;;;;21.11;31.48;100117.28;5002030;28;918;-79
2021/05/21 09:28:32;;;;;;;;;;;;;;;20.93;31.81;100103.59;5003400;28;1859;-80
2021/05/21 09:31:26;;;;;;;;;;;;;;;20.84;32.60;100107.00;5003419;28;747;-79
2021/05/21 09:33:53;;;;;;;;;;;;;;;20.72;32.51;100106.84;5001014;28;2044;-78
2021/05/21 09:36:28;;;;;;;;;;;;;;;20.12;33.90;100099.13;5002253;28;1999;-78
2021/05/21 09:38:56;;;;;;;;;;;;;;;21.10;32.01;100101.66;5000788;28;2012;-79
2021/05/21 09:41:22;;;;;;;;;;;;;;;21.51;30.92;100091.94;5003307;28;960;-78
2021/05/21 09:44:01;;;;;;;;;;;;;;;20.18;33.29;100097.41;5008520;28;2099;-83
2021/05/21 09:46:41;;;;;;;;;;;;;;;19.87;33.00;100102.38;5009676;28;2130;-83
2021/05/21 09:49:26;;;;;;;;;;;;;;;18.90;34.87;100112.13;5009322;28;1237;-81
2021/05/21 09:51:56;;;;;;;;;;;;;;;17.88;36.95;100099.59;4992289;28;1693;-83
2021/05/21 09:54:21;;;;;;;;;;;;;;;17.48;37.08;100114.59;4986761;28;2742;-82
2021/05/21 09:57:09;;;;;;;;;;;;;;;16.96;38.73;100099.72;4989846;28;1942;-82
2021/05/21 09:59:40;;;;;;;;;;;;;;;17.12;39.55;100102.06;5006843;28;1001;-81
2021/05/21 10:02:21;;;;;;;;;;;;;;;17.64;38.39;100096.53;5009058;28;882;-80
2021/05/21 10:04:50;;;;;;;;;;;;;;;18.35;36.75;100109.09;5009740;28;2720;-81
2021/05/21 10:07:16;;;;;;;;;;;;;;;20.28;33.31;100093.63;4991498;28;1285;-81
2021/05/21 10:09:42;;;;;;;;;;;;;;;22.79;29.90;100089.03;5009072;28;829;-81
2021/05/21 10:12:08;;;;;;;;;;;;;;;23.37;27.80;100096.53;4991765;28;1256;-81
2021/05/21 10:14:34;;;;;;;;;;;;;;;23.54;27.86;100090.81;5008637;28;1842;-81
2021/05/21 10:17:01;;;;;;;;;;;;;;;23.45;27.02;100085.84;5006707;28;1930;-80
2021/05/21 10:19:27;;;;;;;;;;;;;;;22.99;27.77;100104.94;5008112;28;860;-81
2021/05/21 10:21:57;;;;;;;;;;;;;;;22.56;29.26;100078.81;5009139;28;1047;-81
2021/05/21 10:24:28;;;;;;;;;;;;;;;21.30;30.29;100084.78;5008497;28;1312;-81
2021/05/21 10:26:55;;;;;;;;;;;;;;;19.21;34.26;100090.53;5008532;28;3143;-80
2021/05/21 10:29:26;;;;;;;;;;;;;;;18.32;36.40;100092.38;5008788;28;862;-81
2021/05/21 10:32:02;;;;;;;;;;;;;;;18.33;36.50;100119.13;5008092;28;1375;-82
2021/05/21 10:34:28;;;;;;;;;;;;;;;17.75;37.53;100102.84;5005308;28;999;-79
2021/05/21 10:37:27;;;;;;;;;;;;;;;17.41;37.72;100109.06;5003366;28;1871;-79
2021/05/21 10:40:00;;;;;;;;;;;;;;;18.18;36.57;100108.06;4991619;28;1710;-80
2021/05/21 10:42:26;;;;;;;;;;;;;;;18.36;36.98;100090.34;5002460;28;793;-79
2021/05/21 10:44:52;;;;;;;;;;;;;;;17.75;37.48;100090.88;4984984;28;1662;-79
2021/05/21 10:47:17;;;;;;;;;;;;;;;17.14;39.34;100094.09;5001889;28;1343;-77
2021/05/21 10:50:03;;;;;;;;;;;;;;;18.04;38.20;100092.25;4999334;28;881;-78
2021/05/21 10:52:49;;;;;;;;;;;;;;;18.04;37.93;100089.44;4999617;28;1249;-79
2021/05/21 10:55:15;;;;;;;;;;;;;;;19.06;37.04;100089.94;4998827;28;1276;-78
2021/05/21 10:57:42;;;;;;;;;;;;;;;20.27;34.92;100077.25;4999819;28;1875;-78
2021/05/21 11:00:08;;;;;;;;;;;;;;;19.50;34.89;100076.09;4985273;28;1496;-79
2021/05/21 11:02:43;;;;;;;;;;;;;;;20.90;33.57;100084.03;4984772;28;1532;-78
2021/05/21 11:05:28;;;;;;;;;;;;;;;19.76;34.28;100110.13;5000409;28;2018;-78
2021/05/21 11:07:56;;;;;;;;;;;;;;;17.91;38.43;100107.13;5000436;28;2231;-80
2021/05/21 11:10:45;;;;;;;;;;;;;;;18.03;38.04;100087.09;5002732;28;1891;-80
2021/05/21 11:13:13;;;;;;;;;;;;;;;17.48;39.51;100108.22;5002008;28;2236;-79
2021/05/21 11:15:39;;;;;;;;;;;;;;;16.50;41.74;100115.41;5001096;28;2400;-78
2021/05/21 11:18:31;;;;;;;;;;;;;;;15.70;43.81;100111.88;4998101;28;2097;-80
2021/05/21 11:21:06;;;;;;;;;;;;;;;15.38;45.59;100123.75;4981657;28;2225;-79
2021/05/21 11:23:35;;;;;;;;;;;;;;;14.31;52.20;100140.72;4983608;28;1868;-76
2021/05/21 11:26:12;;;;;;;;;;;;;;;12.82;62.15;100188.66;4982526;28;2864;-75
2021/05/21 11:28:44;;;;;;;;;;;;;;;10.83;74.77;100202.88;5000455;28;2037;-79
2021/05/21 11:31:20;;;;;;;;;;;;;;;10.24;80.16;100191.63;4980211;28;2009;-79
2021/05/21 11:33:48;;;;;;;;;;;;;;;10.07;78.79;100192.81;5001289;28;2171;-78
2021/05/21 11:36:21;;;;;;;;;;;;;;;10.32;79.16;100162.31;4984563;28;1875;-79
2021/05/21 11:38:55;;;;;;;;;;;;;;;11.91;78.07;100160.78;5000930;28;2347;-78
2021/05/21 11:41:35;;;;;;;;;;;;;;;15.71;67.50;100154.41;5004461;28;1241;-79
2021/05/21 11:44:08;;;;;;;;;;;;;;;18.08;56.29;100142.50;5009599;28;1268;-79
2021/05/21 11:46:39;;;;;;;;;;;;;;;17.91;53.67;100133.06;5006417;28;737;-79
2021/05/21 11:49:09;;;;;;;;;;;;;;;16.30;57.22;100126.19;5006494;28;1213;-80
2021/05/21 11:51:35;;;;;;;;;;;;;;;15.73;57.78;100138.13;4989347;28;1843;-79
2021/05/21 11:54:02;;;;;;;;;;;;;;;15.22;56.56;100132.44;5007870;28;1062;-79
2021/05/21 11:56:41;;;;;;;;;;;;;;;15.02;58.72;100129.19;4998902;28;1894;-78
2021/05/21 11:59:14;;;;;;;;;;;;;;;14.91;58.66;100122.00;4968103;28;1404;-77
2021/05/21 12:01:48;;;;;;;;;;;;;;;15.67;57.19;100129.34;4984976;28;1106;-78
2021/05/21 12:04:15;;;;;;;;;;;;;;;16.26;54.83;100120.63;4999443;28;851;-78
2021/05/21 12:06:47;;;;;;;;;;;;;;;16.37;56.34;100115.03;5004862;28;2083;-79
2021/05/21 12:09:14;;;;;;;;;;;;;;;16.45;49.96;100113.03;4967745;28;1281;-79
2021/05/21 12:11:41;;;;;;;;;;;;;;;16.99;47.55;100101.72;5002541;28;1891;-80
2021/05/21 12:14:18;;;;;;;;;;;;;;;17.10;45.27;100122.00;5005362;28;1889;-80
2021/05/21 12:16:45;;;;;;;;;;;;;;;18.92;42.11;100110.50;5005315;28;3000;-80
2021/05/21 12:19:12;;;;;;;;;;;;;;;20.78;38.09;100094.72;5004782;28;3272;-79
2021/05/21 12:21:43;;;;;;;;;;;;;;;21.75;34.96;100077.69;5004834;28;1079;-83
2021/05/21 12:24:11;;;;;;;;;;;;;;;22.46;33.42;100089.16;5003510;28;1831;-78
2021/05/21 12:26:39;;;;;;;;;;;;;;;21.63;35.22;100084.03;5005466;28;1885;-81
2021/05/21 12:29:07;;;;;;;;;;;;;;;21.45;37.69;100079.59;5007454;28;1213;-79
2021/05/21 12:31:36;;;;;;;;;;;;;;;22.05;35.46;100081.38;5006475;28;970;-80
2021/05/21 12:34:02;;;;;;;;;;;;;;;21.37;34.88;100083.81;4989472;28;1894;-79
2021/05/21 12:36:30;;;;;;;;;;;;;;;21.67;34.75;100076.31;5004442;28;1901;-80
2021/05/21 12:39:02;;;;;;;;;;;;;;;22.76;33.36;100075.06;5005287;28;1178;-80
2021/05/21 12:41:30;;;;;;;;;;;;;;;20.54;35.90;100096.75;4990626;28;1891;-79
2021/05/21 12:44:16;;;;;;;;;;;;;;;17.92;41.98;100095.53;5008398;28;837;-78
2021/05/21 12:46:59;;;;;;;;;;;;;;;16.65;46.09;100111.38;5006784;28;2133;-80
2021/05/21 12:49:34;;;;;;;;;;;;;;;16.39;46.22;100093.16;5008347;28;833;-81
2021/05/21 12:52:06;;;;;;;;;;;;;;;16.41;46.75;100103.91;5006720;28;1909;-80
2021/05/21 12:54:37;;;;;;;;;;;;;;;16.33;47.23;100098.34;4990520;28;1294;-81